THY9YD LTFG-LTFM
Flight info
| Callsign | THY9YD |
|---|---|
| Flight time | 1h 14m |
| Altitude | 36000 |
| Route | ATSUB UT336 AYT UM855 LEMDA UA16 KFK UM855 SISPI |
| Aircraft | A321/M-SDE3FGHIRWY/LB1 |
Departure
| Time | 2026-05-08 12:03 |
|---|---|
| Airport | Gazipaşa-Alanya Airport (LTFG) |
Arrival
| Time | 2026-05-08 13:17 |
|---|---|
| Airport | İstanbul Airport (LTFM) |
| Time | Latitude | Longitude | Altitude | Speed | Heading |
|---|---|---|---|---|---|
| 2026-05-08 11:37 | 36.29800 | 32.30338 | 123 ft | 0 kts | 172° |
| 2026-05-08 11:52 | 36.29803 | 32.30338 | 127 ft | 3 kts | 171° |
| 2026-05-08 11:52 | 36.29820 | 32.30335 | 123 ft | 4 kts | 160° |
| 2026-05-08 11:52 | 36.29836 | 32.30316 | 124 ft | 4 kts | 101° |
| 2026-05-08 11:53 | 36.29838 | 32.30283 | 124 ft | 4 kts | 85° |
| 2026-05-08 11:53 | 36.29837 | 32.30271 | 124 ft | 0 kts | 83° |
| 2026-05-08 11:56 | 36.29838 | 32.30282 | 123 ft | 3 kts | 83° |
| 2026-05-08 11:57 | 36.29842 | 32.30319 | 125 ft | 5 kts | 83° |
| 2026-05-08 11:57 | 36.29845 | 32.30360 | 125 ft | 4 kts | 83° |
| 2026-05-08 11:57 | 36.29849 | 32.30399 | 127 ft | 5 kts | 83° |
| 2026-05-08 11:57 | 36.29874 | 32.30428 | 127 ft | 3 kts | 12° |
| 2026-05-08 11:58 | 36.29877 | 32.30428 | 127 ft | 0 kts | 4° |
| 2026-05-08 11:58 | 36.29881 | 32.30428 | 127 ft | 2 kts | 2° |
| 2026-05-08 11:58 | 36.29894 | 32.30424 | 123 ft | 4 kts | 340° |
| 2026-05-08 11:59 | 36.29936 | 32.30329 | 123 ft | 6 kts | 314° |
| 2026-05-08 11:59 | 36.29962 | 32.30355 | 126 ft | 7 kts | 76° |
| 2026-05-08 11:59 | 36.29972 | 32.30422 | 127 ft | 9 kts | 80° |
| 2026-05-08 11:59 | 36.29983 | 32.30511 | 128 ft | 11 kts | 82° |
| 2026-05-08 12:00 | 36.29995 | 32.30615 | 126 ft | 13 kts | 82° |
| 2026-05-08 12:00 | 36.30010 | 32.30738 | 125 ft | 15 kts | 82° |
| 2026-05-08 12:00 | 36.30024 | 32.30859 | 127 ft | 12 kts | 82° |
| 2026-05-08 12:00 | 36.30041 | 32.30940 | 128 ft | 10 kts | 65° |
| 2026-05-08 12:01 | 36.30065 | 32.31014 | 128 ft | 9 kts | 93° |
| 2026-05-08 12:01 | 36.30043 | 32.31015 | 135 ft | 4 kts | 244° |
| 2026-05-08 12:01 | 36.30039 | 32.30980 | 135 ft | 0 kts | 261° |
| 2026-05-08 12:02 | 36.30031 | 32.30918 | 126 ft | 38 kts | 262° |
| 2026-05-08 12:02 | 36.29947 | 32.30221 | 128 ft | 123 kts | 262° |
| 2026-05-08 12:02 | 36.29790 | 32.28883 | 184 ft | 183 kts | 261° |
| 2026-05-08 12:03 | 36.29614 | 32.27331 | 1173 ft | 180 kts | 262° |
| 2026-05-08 12:03 | 36.29439 | 32.25778 | 2135 ft | 182 kts | 261° |
| 2026-05-08 12:03 | 36.29247 | 32.24164 | 2711 ft | 198 kts | 261° |
| 2026-05-08 12:03 | 36.29228 | 32.22340 | 2971 ft | 223 kts | 284° |
| 2026-05-08 12:04 | 36.30045 | 32.20593 | 3171 ft | 250 kts | 307° |
| 2026-05-08 12:04 | 36.31132 | 32.18885 | 3741 ft | 261 kts | 307° |
| 2026-05-08 12:04 | 36.32260 | 32.17103 | 4481 ft | 265 kts | 307° |
| 2026-05-08 12:04 | 36.33403 | 32.15288 | 5255 ft | 268 kts | 308° |
| 2026-05-08 12:05 | 36.34556 | 32.13447 | 6024 ft | 272 kts | 308° |
| 2026-05-08 12:05 | 36.35720 | 32.11579 | 6761 ft | 275 kts | 308° |
| 2026-05-08 12:05 | 36.36896 | 32.09688 | 7479 ft | 279 kts | 309° |
| 2026-05-08 12:05 | 36.38086 | 32.07770 | 8208 ft | 282 kts | 309° |
| 2026-05-08 12:06 | 36.39285 | 32.05833 | 8941 ft | 285 kts | 309° |
| 2026-05-08 12:06 | 36.40496 | 32.03871 | 9685 ft | 288 kts | 309° |
| 2026-05-08 12:06 | 36.41592 | 32.02099 | 10233 ft | 295 kts | 309° |
| 2026-05-08 12:06 | 36.42869 | 31.99941 | 10408 ft | 319 kts | 303° |
| 2026-05-08 12:07 | 36.43959 | 31.97470 | 10535 ft | 342 kts | 298° |
| 2026-05-08 12:07 | 36.45072 | 31.94778 | 10761 ft | 359 kts | 298° |
| 2026-05-08 12:07 | 36.46222 | 31.91985 | 11316 ft | 364 kts | 298° |
| 2026-05-08 12:07 | 36.47380 | 31.89183 | 11988 ft | 366 kts | 298° |
| 2026-05-08 12:08 | 36.48545 | 31.86363 | 12682 ft | 368 kts | 298° |
| 2026-05-08 12:08 | 36.49714 | 31.83530 | 13377 ft | 370 kts | 298° |
| 2026-05-08 12:08 | 36.50894 | 31.80671 | 14057 ft | 372 kts | 298° |
| 2026-05-08 12:08 | 36.52089 | 31.77772 | 14662 ft | 374 kts | 298° |
| 2026-05-08 12:09 | 36.53266 | 31.74916 | 15246 ft | 377 kts | 298° |
| 2026-05-08 12:09 | 36.54455 | 31.72024 | 15827 ft | 380 kts | 298° |
| 2026-05-08 12:09 | 36.55665 | 31.69084 | 16423 ft | 383 kts | 298° |
| 2026-05-08 12:09 | 36.56882 | 31.66127 | 17008 ft | 386 kts | 298° |
| 2026-05-08 12:10 | 36.58110 | 31.63147 | 17601 ft | 389 kts | 298° |
| 2026-05-08 12:10 | 36.59348 | 31.60136 | 18172 ft | 392 kts | 298° |
| 2026-05-08 12:10 | 36.60590 | 31.57110 | 18711 ft | 395 kts | 298° |
| 2026-05-08 12:10 | 36.61843 | 31.54058 | 19226 ft | 397 kts | 297° |
| 2026-05-08 12:11 | 36.63098 | 31.50986 | 19737 ft | 398 kts | 297° |
| 2026-05-08 12:11 | 36.64355 | 31.47904 | 20245 ft | 400 kts | 297° |
| 2026-05-08 12:11 | 36.65620 | 31.44809 | 20750 ft | 401 kts | 297° |
| 2026-05-08 12:11 | 36.66893 | 31.41702 | 21246 ft | 403 kts | 297° |
| 2026-05-08 12:12 | 36.68167 | 31.38590 | 21729 ft | 404 kts | 297° |
| 2026-05-08 12:12 | 36.69446 | 31.35456 | 22197 ft | 406 kts | 297° |
| 2026-05-08 12:12 | 36.70725 | 31.32321 | 22680 ft | 407 kts | 297° |
| 2026-05-08 12:12 | 36.72015 | 31.29162 | 23137 ft | 409 kts | 297° |
| 2026-05-08 12:13 | 36.73307 | 31.25997 | 23583 ft | 410 kts | 297° |
| 2026-05-08 12:13 | 36.74599 | 31.22823 | 23969 ft | 412 kts | 297° |
| 2026-05-08 12:13 | 36.75897 | 31.19626 | 24384 ft | 412 kts | 297° |
| 2026-05-08 12:13 | 36.77189 | 31.16436 | 24778 ft | 413 kts | 297° |
| 2026-05-08 12:14 | 36.78484 | 31.13226 | 25153 ft | 415 kts | 297° |
| 2026-05-08 12:14 | 36.79761 | 31.10056 | 25520 ft | 415 kts | 297° |
| 2026-05-08 12:14 | 36.81077 | 31.06791 | 25902 ft | 416 kts | 298° |
| 2026-05-08 12:14 | 36.82378 | 31.03572 | 26271 ft | 417 kts | 298° |
| 2026-05-08 12:15 | 36.83688 | 31.00331 | 26646 ft | 417 kts | 298° |
| 2026-05-08 12:15 | 36.84998 | 30.97089 | 27016 ft | 418 kts | 298° |
| 2026-05-08 12:15 | 36.86308 | 30.93844 | 27376 ft | 420 kts | 298° |
| 2026-05-08 12:15 | 36.87621 | 30.90581 | 27707 ft | 421 kts | 298° |
| 2026-05-08 12:16 | 36.88947 | 30.87311 | 28053 ft | 422 kts | 300° |
| 2026-05-08 12:16 | 36.90617 | 30.84312 | 28390 ft | 422 kts | 311° |
| 2026-05-08 12:16 | 36.92732 | 30.81864 | 28836 ft | 420 kts | 322° |
| 2026-05-08 12:16 | 36.95240 | 30.79996 | 29313 ft | 421 kts | 333° |
| 2026-05-08 12:17 | 36.98058 | 30.78818 | 29800 ft | 423 kts | 344° |
| 2026-05-08 12:17 | 37.00983 | 30.78336 | 30261 ft | 424 kts | 349° |
| 2026-05-08 12:17 | 37.03919 | 30.77977 | 30662 ft | 422 kts | 349° |
| 2026-05-08 12:17 | 37.06838 | 30.77623 | 31063 ft | 420 kts | 349° |
| 2026-05-08 12:18 | 37.09674 | 30.77276 | 31466 ft | 418 kts | 348° |
| 2026-05-08 12:18 | 37.12566 | 30.76916 | 31861 ft | 416 kts | 348° |
| 2026-05-08 12:18 | 37.15436 | 30.76555 | 32247 ft | 414 kts | 348° |
| 2026-05-08 12:18 | 37.18304 | 30.76197 | 32644 ft | 412 kts | 347° |
| 2026-05-08 12:19 | 37.21147 | 30.75847 | 33020 ft | 410 kts | 348° |
| 2026-05-08 12:19 | 37.24022 | 30.75491 | 33329 ft | 409 kts | 347° |
| 2026-05-08 12:19 | 37.26837 | 30.75137 | 33698 ft | 407 kts | 347° |
| 2026-05-08 12:19 | 37.29615 | 30.74789 | 34058 ft | 405 kts | 347° |
| 2026-05-08 12:20 | 37.32422 | 30.74435 | 34378 ft | 404 kts | 347° |
| 2026-05-08 12:20 | 37.35211 | 30.74084 | 34676 ft | 402 kts | 346° |
| 2026-05-08 12:20 | 37.37991 | 30.73734 | 34950 ft | 402 kts | 347° |
| 2026-05-08 12:20 | 37.40774 | 30.73381 | 35222 ft | 401 kts | 347° |
| 2026-05-08 12:21 | 37.43551 | 30.73022 | 35489 ft | 400 kts | 346° |
| 2026-05-08 12:21 | 37.46318 | 30.72632 | 35769 ft | 400 kts | 346° |
| 2026-05-08 12:21 | 37.49074 | 30.72222 | 36049 ft | 399 kts | 346° |
| 2026-05-08 12:21 | 37.51836 | 30.71806 | 36145 ft | 399 kts | 346° |
| 2026-05-08 12:22 | 37.57362 | 30.70966 | 36174 ft | 401 kts | 346° |
| 2026-05-08 12:22 | 37.62897 | 30.70199 | 36186 ft | 402 kts | 347° |
| 2026-05-08 12:23 | 37.68488 | 30.69540 | 36192 ft | 403 kts | 347° |
| 2026-05-08 12:23 | 37.74078 | 30.68886 | 36214 ft | 403 kts | 347° |
| 2026-05-08 12:24 | 37.79630 | 30.68211 | 36217 ft | 403 kts | 346° |
| 2026-05-08 12:24 | 37.85219 | 30.67507 | 36221 ft | 404 kts | 346° |
| 2026-05-08 12:25 | 37.90851 | 30.66794 | 36229 ft | 404 kts | 346° |
| 2026-05-08 12:25 | 37.96403 | 30.65997 | 36252 ft | 404 kts | 345° |
| 2026-05-08 12:26 | 38.01984 | 30.65183 | 36238 ft | 405 kts | 346° |
| 2026-05-08 12:26 | 38.07597 | 30.64430 | 36233 ft | 405 kts | 346° |
| 2026-05-08 12:27 | 38.13212 | 30.63695 | 36229 ft | 405 kts | 346° |
| 2026-05-08 12:27 | 38.18770 | 30.62968 | 36233 ft | 405 kts | 346° |
| 2026-05-08 12:28 | 38.24375 | 30.62226 | 36230 ft | 406 kts | 346° |
| 2026-05-08 12:28 | 38.29998 | 30.61471 | 36231 ft | 406 kts | 346° |
| 2026-05-08 12:29 | 38.35618 | 30.60725 | 36226 ft | 406 kts | 346° |
| 2026-05-08 12:29 | 38.41244 | 30.59972 | 36240 ft | 407 kts | 346° |
| 2026-05-08 12:30 | 38.46872 | 30.59217 | 36231 ft | 407 kts | 346° |
| 2026-05-08 12:30 | 38.52501 | 30.58455 | 36227 ft | 407 kts | 346° |
| 2026-05-08 12:31 | 38.58136 | 30.57696 | 36222 ft | 407 kts | 346° |
| 2026-05-08 12:31 | 38.63764 | 30.56942 | 36225 ft | 407 kts | 346° |
| 2026-05-08 12:32 | 38.69401 | 30.56179 | 36214 ft | 407 kts | 346° |
| 2026-05-08 12:32 | 38.75038 | 30.55415 | 36215 ft | 407 kts | 346° |
| 2026-05-08 12:33 | 38.80584 | 30.54267 | 36227 ft | 397 kts | 335° |
| 2026-05-08 12:33 | 38.85536 | 30.51402 | 36219 ft | 389 kts | 327° |
| 2026-05-08 12:34 | 38.90392 | 30.48296 | 36206 ft | 390 kts | 328° |
| 2026-05-08 12:34 | 38.95265 | 30.45202 | 36206 ft | 391 kts | 328° |
| 2026-05-08 12:35 | 39.00102 | 30.42108 | 36218 ft | 391 kts | 327° |
| 2026-05-08 12:35 | 39.04967 | 30.38981 | 36207 ft | 391 kts | 327° |
| 2026-05-08 12:36 | 39.09847 | 30.35845 | 36192 ft | 392 kts | 327° |
| 2026-05-08 12:36 | 39.14735 | 30.32695 | 36192 ft | 393 kts | 327° |
| 2026-05-08 12:37 | 39.19457 | 30.29643 | 36198 ft | 394 kts | 327° |
| 2026-05-08 12:37 | 39.24363 | 30.26481 | 36197 ft | 394 kts | 327° |
| 2026-05-08 12:38 | 39.29285 | 30.23304 | 36206 ft | 395 kts | 327° |
| 2026-05-08 12:38 | 39.34199 | 30.20120 | 36201 ft | 395 kts | 327° |
| 2026-05-08 12:39 | 39.39115 | 30.16927 | 36193 ft | 396 kts | 327° |
| 2026-05-08 12:39 | 39.44031 | 30.13728 | 36191 ft | 396 kts | 327° |
| 2026-05-08 12:40 | 39.48148 | 30.11127 | 36179 ft | 398 kts | 329° |
| 2026-05-08 12:40 | 39.53258 | 30.08282 | 36186 ft | 401 kts | 331° |
| 2026-05-08 12:41 | 39.58423 | 30.05516 | 36171 ft | 402 kts | 330° |
| 2026-05-08 12:41 | 39.63580 | 30.02687 | 36171 ft | 403 kts | 330° |
| 2026-05-08 12:42 | 39.68753 | 29.99787 | 36172 ft | 403 kts | 330° |
| 2026-05-08 12:42 | 39.73869 | 29.96908 | 36177 ft | 403 kts | 330° |
| 2026-05-08 12:43 | 39.79034 | 29.94001 | 36176 ft | 404 kts | 330° |
| 2026-05-08 12:43 | 39.84199 | 29.91101 | 36172 ft | 405 kts | 330° |
| 2026-05-08 12:44 | 39.89371 | 29.88183 | 36167 ft | 406 kts | 330° |
| 2026-05-08 12:44 | 39.94904 | 29.86257 | 36158 ft | 418 kts | 343° |
| 2026-05-08 12:45 | 40.00665 | 29.85063 | 35990 ft | 419 kts | 343° |
| 2026-05-08 12:45 | 40.03542 | 29.84451 | 35372 ft | 420 kts | 343° |
| 2026-05-08 12:45 | 40.06420 | 29.83837 | 34744 ft | 420 kts | 343° |
| 2026-05-08 12:46 | 40.09308 | 29.83219 | 34014 ft | 423 kts | 343° |
| 2026-05-08 12:46 | 40.12236 | 29.82591 | 33202 ft | 426 kts | 343° |
| 2026-05-08 12:46 | 40.15163 | 29.81966 | 32452 ft | 428 kts | 344° |
| 2026-05-08 12:46 | 40.18120 | 29.81339 | 31624 ft | 432 kts | 345° |
| 2026-05-08 12:47 | 40.21105 | 29.80703 | 30758 ft | 437 kts | 346° |
| 2026-05-08 12:47 | 40.24130 | 29.80055 | 29802 ft | 442 kts | 346° |
| 2026-05-08 12:47 | 40.27185 | 29.79399 | 28804 ft | 447 kts | 347° |
| 2026-05-08 12:47 | 40.30252 | 29.78743 | 28101 ft | 445 kts | 347° |
| 2026-05-08 12:48 | 40.33307 | 29.78445 | 27954 ft | 435 kts | 358° |
| 2026-05-08 12:48 | 40.36279 | 29.78939 | 27768 ft | 428 kts | 9° |
| 2026-05-08 12:48 | 40.39081 | 29.80171 | 27515 ft | 426 kts | 20° |
| 2026-05-08 12:48 | 40.41656 | 29.82109 | 27279 ft | 428 kts | 31° |
| 2026-05-08 12:49 | 40.44087 | 29.84356 | 26905 ft | 425 kts | 30° |
| 2026-05-08 12:49 | 40.46578 | 29.86366 | 26504 ft | 416 kts | 22° |
| 2026-05-08 12:49 | 40.49255 | 29.87746 | 26112 ft | 409 kts | 12° |
| 2026-05-08 12:49 | 40.52007 | 29.88475 | 25738 ft | 402 kts | 2° |
| 2026-05-08 12:50 | 40.54788 | 29.88571 | 25377 ft | 397 kts | 353° |
| 2026-05-08 12:50 | 40.57466 | 29.87967 | 25033 ft | 387 kts | 340° |
| 2026-05-08 12:50 | 40.60007 | 29.86860 | 24812 ft | 384 kts | 339° |
| 2026-05-08 12:50 | 40.62560 | 29.85741 | 24602 ft | 388 kts | 339° |
| 2026-05-08 12:51 | 40.65128 | 29.84619 | 24377 ft | 389 kts | 339° |
| 2026-05-08 12:51 | 40.70268 | 29.82383 | 23937 ft | 388 kts | 340° |
| 2026-05-08 12:51 | 40.72831 | 29.81266 | 23705 ft | 389 kts | 340° |
| 2026-05-08 12:52 | 40.75374 | 29.80157 | 23448 ft | 388 kts | 340° |
| 2026-05-08 12:52 | 40.80490 | 29.77925 | 22909 ft | 386 kts | 340° |
| 2026-05-08 12:52 | 40.83033 | 29.76815 | 22644 ft | 385 kts | 340° |
| 2026-05-08 12:53 | 40.85554 | 29.75709 | 22379 ft | 378 kts | 340° |
| 2026-05-08 12:53 | 40.88025 | 29.74620 | 22116 ft | 370 kts | 340° |
| 2026-05-08 12:53 | 40.90444 | 29.73553 | 21854 ft | 362 kts | 340° |
| 2026-05-08 12:53 | 40.92801 | 29.72517 | 21599 ft | 353 kts | 340° |
| 2026-05-08 12:54 | 40.95109 | 29.71507 | 21346 ft | 346 kts | 340° |
| 2026-05-08 12:54 | 40.97373 | 29.70517 | 21104 ft | 339 kts | 339° |
| 2026-05-08 12:54 | 40.99597 | 29.69544 | 20855 ft | 334 kts | 339° |
| 2026-05-08 12:54 | 41.01771 | 29.68588 | 20603 ft | 334 kts | 339° |
| 2026-05-08 12:55 | 41.03996 | 29.67605 | 20358 ft | 332 kts | 340° |
| 2026-05-08 12:55 | 41.06187 | 29.66638 | 20112 ft | 332 kts | 339° |
| 2026-05-08 12:55 | 41.08374 | 29.65671 | 19877 ft | 330 kts | 339° |
| 2026-05-08 12:55 | 41.10522 | 29.64719 | 19634 ft | 330 kts | 338° |
| 2026-05-08 12:56 | 41.12691 | 29.63755 | 19393 ft | 329 kts | 339° |
| 2026-05-08 12:56 | 41.14858 | 29.62792 | 19157 ft | 329 kts | 339° |
| 2026-05-08 12:56 | 41.17032 | 29.61829 | 18920 ft | 328 kts | 339° |
| 2026-05-08 12:56 | 41.19195 | 29.60877 | 18688 ft | 328 kts | 340° |
| 2026-05-08 12:57 | 41.21368 | 29.59917 | 18466 ft | 329 kts | 340° |
| 2026-05-08 12:57 | 41.23537 | 29.58954 | 18207 ft | 328 kts | 340° |
| 2026-05-08 12:57 | 41.25693 | 29.57996 | 17929 ft | 326 kts | 340° |
| 2026-05-08 12:57 | 41.27841 | 29.57041 | 17690 ft | 325 kts | 340° |
| 2026-05-08 12:58 | 41.29985 | 29.56085 | 17423 ft | 324 kts | 340° |
| 2026-05-08 12:58 | 41.32116 | 29.55134 | 17153 ft | 323 kts | 340° |
| 2026-05-08 12:58 | 41.34239 | 29.54185 | 16901 ft | 321 kts | 340° |
| 2026-05-08 12:58 | 41.36355 | 29.53242 | 16640 ft | 320 kts | 339° |
| 2026-05-08 12:59 | 41.38470 | 29.52300 | 16391 ft | 319 kts | 340° |
| 2026-05-08 12:59 | 41.40560 | 29.51370 | 16029 ft | 316 kts | 339° |
| 2026-05-08 12:59 | 41.42644 | 29.50441 | 15610 ft | 316 kts | 340° |
| 2026-05-08 12:59 | 41.44722 | 29.49515 | 15178 ft | 316 kts | 340° |
| 2026-05-08 13:00 | 41.46813 | 29.48584 | 14725 ft | 317 kts | 340° |
| 2026-05-08 13:00 | 41.48902 | 29.47651 | 14274 ft | 317 kts | 340° |
| 2026-05-08 13:00 | 41.51000 | 29.46712 | 13801 ft | 319 kts | 340° |
| 2026-05-08 13:00 | 41.53104 | 29.45768 | 13244 ft | 317 kts | 340° |
| 2026-05-08 13:01 | 41.55161 | 29.44848 | 12836 ft | 307 kts | 340° |
| 2026-05-08 13:01 | 41.57153 | 29.43955 | 12454 ft | 297 kts | 340° |
| 2026-05-08 13:01 | 41.59074 | 29.43071 | 12082 ft | 287 kts | 335° |
| 2026-05-08 13:01 | 41.60721 | 29.41678 | 11700 ft | 276 kts | 314° |
| 2026-05-08 13:02 | 41.61862 | 29.39689 | 11294 ft | 267 kts | 295° |
| 2026-05-08 13:02 | 41.62439 | 29.37368 | 10866 ft | 262 kts | 278° |
| 2026-05-08 13:02 | 41.62435 | 29.34931 | 10269 ft | 264 kts | 261° |
| 2026-05-08 13:02 | 41.62149 | 29.32524 | 9805 ft | 261 kts | 261° |
| 2026-05-08 13:03 | 41.61886 | 29.30171 | 9392 ft | 256 kts | 261° |
| 2026-05-08 13:03 | 41.61628 | 29.27812 | 9015 ft | 253 kts | 261° |
| 2026-05-08 13:03 | 41.61376 | 29.25516 | 8668 ft | 253 kts | 261° |
| 2026-05-08 13:03 | 41.61122 | 29.23191 | 8331 ft | 252 kts | 261° |
| 2026-05-08 13:04 | 41.60866 | 29.20873 | 7996 ft | 252 kts | 261° |
| 2026-05-08 13:04 | 41.60609 | 29.18561 | 7652 ft | 251 kts | 261° |
| 2026-05-08 13:04 | 41.60354 | 29.16290 | 7318 ft | 244 kts | 261° |
| 2026-05-08 13:04 | 41.60106 | 29.14079 | 6997 ft | 238 kts | 260° |
| 2026-05-08 13:05 | 41.59863 | 29.11918 | 6684 ft | 233 kts | 260° |
| 2026-05-08 13:05 | 41.59625 | 29.09805 | 6369 ft | 228 kts | 260° |
| 2026-05-08 13:05 | 41.59390 | 29.07717 | 6056 ft | 227 kts | 260° |
| 2026-05-08 13:05 | 41.59156 | 29.05648 | 5751 ft | 224 kts | 260° |
| 2026-05-08 13:06 | 41.58923 | 29.03598 | 5447 ft | 222 kts | 261° |
| 2026-05-08 13:06 | 41.58694 | 29.01572 | 5264 ft | 217 kts | 261° |
| 2026-05-08 13:06 | 41.58466 | 28.99566 | 5184 ft | 219 kts | 261° |
| 2026-05-08 13:06 | 41.58238 | 28.97553 | 5091 ft | 219 kts | 261° |
| 2026-05-08 13:07 | 41.58174 | 28.95527 | 4994 ft | 219 kts | 276° |
| 2026-05-08 13:07 | 41.58608 | 28.93579 | 4812 ft | 221 kts | 294° |
| 2026-05-08 13:07 | 41.59369 | 28.91801 | 4568 ft | 220 kts | 296° |
| 2026-05-08 13:07 | 41.60126 | 28.90035 | 4357 ft | 219 kts | 296° |
| 2026-05-08 13:08 | 41.60876 | 28.88268 | 4144 ft | 218 kts | 296° |
| 2026-05-08 13:08 | 41.61621 | 28.86505 | 4013 ft | 218 kts | 296° |
| 2026-05-08 13:08 | 41.62366 | 28.84741 | 3982 ft | 218 kts | 295° |
| 2026-05-08 13:08 | 41.63110 | 28.82976 | 3981 ft | 218 kts | 295° |
| 2026-05-08 13:09 | 41.63818 | 28.81185 | 3968 ft | 216 kts | 285° |
| 2026-05-08 13:09 | 41.63902 | 28.79280 | 3969 ft | 203 kts | 254° |
| 2026-05-08 13:09 | 41.63212 | 28.77669 | 3981 ft | 204 kts | 225° |
| 2026-05-08 13:09 | 41.61950 | 28.76751 | 3984 ft | 212 kts | 204° |
| 2026-05-08 13:10 | 41.60612 | 28.75951 | 3982 ft | 210 kts | 212° |
| 2026-05-08 13:10 | 41.59238 | 28.75269 | 3980 ft | 214 kts | 194° |
| 2026-05-08 13:10 | 41.57752 | 28.75140 | 3980 ft | 213 kts | 186° |
| 2026-05-08 13:10 | 41.56267 | 28.75128 | 3980 ft | 213 kts | 185° |
| 2026-05-08 13:11 | 41.54784 | 28.75140 | 3980 ft | 212 kts | 185° |
| 2026-05-08 13:11 | 41.53333 | 28.75160 | 4007 ft | 205 kts | 186° |
| 2026-05-08 13:11 | 41.51890 | 28.75182 | 3992 ft | 209 kts | 185° |
| 2026-05-08 13:11 | 41.50432 | 28.75209 | 3984 ft | 210 kts | 185° |
| 2026-05-08 13:12 | 41.48973 | 28.75237 | 3952 ft | 210 kts | 185° |
| 2026-05-08 13:12 | 41.47514 | 28.75266 | 3789 ft | 210 kts | 185° |
| 2026-05-08 13:12 | 41.46054 | 28.75294 | 3536 ft | 209 kts | 185° |
| 2026-05-08 13:12 | 41.44608 | 28.75322 | 3288 ft | 205 kts | 186° |
| 2026-05-08 13:13 | 41.43216 | 28.75351 | 3020 ft | 194 kts | 186° |
| 2026-05-08 13:13 | 41.41900 | 28.75376 | 2754 ft | 184 kts | 186° |
| 2026-05-08 13:13 | 41.40671 | 28.75401 | 2506 ft | 170 kts | 186° |
| 2026-05-08 13:13 | 41.39536 | 28.75423 | 2311 ft | 157 kts | 186° |
| 2026-05-08 13:14 | 41.38460 | 28.75442 | 2101 ft | 153 kts | 186° |
| 2026-05-08 13:14 | 41.37425 | 28.75459 | 1896 ft | 154 kts | 186° |
| 2026-05-08 13:14 | 41.36398 | 28.75477 | 1705 ft | 154 kts | 186° |
| 2026-05-08 13:14 | 41.35341 | 28.75499 | 1516 ft | 145 kts | 186° |
| 2026-05-08 13:15 | 41.34363 | 28.75517 | 1312 ft | 142 kts | 187° |
| 2026-05-08 13:15 | 41.33384 | 28.75536 | 1132 ft | 138 kts | 187° |
| 2026-05-08 13:15 | 41.32447 | 28.75553 | 957 ft | 136 kts | 186° |
| 2026-05-08 13:15 | 41.31510 | 28.75570 | 769 ft | 137 kts | 187° |
| 2026-05-08 13:16 | 41.30537 | 28.75589 | 590 ft | 142 kts | 185° |
| 2026-05-08 13:16 | 41.29522 | 28.75605 | 459 ft | 144 kts | 186° |
| 2026-05-08 13:16 | 41.28548 | 28.75627 | 352 ft | 138 kts | 185° |
| 2026-05-08 13:16 | 41.27713 | 28.75627 | 331 ft | 94 kts | 179° |
| 2026-05-08 13:17 | 41.27232 | 28.75644 | 330 ft | 45 kts | 179° |
| 2026-05-08 13:17 | 41.27024 | 28.75647 | 330 ft | 26 kts | 180° |
| 2026-05-08 13:17 | 41.26852 | 28.75642 | 334 ft | 24 kts | 186° |
| 2026-05-08 13:17 | 41.26707 | 28.75575 | 333 ft | 21 kts | 209° |
| 2026-05-08 13:18 | 41.26635 | 28.75471 | 331 ft | 14 kts | 252° |
| 2026-05-08 13:18 | 41.26624 | 28.75410 | 330 ft | 6 kts | 244° |
| 2026-05-08 13:18 | 41.26586 | 28.75386 | 332 ft | 4 kts | 187° |
| 2026-05-08 13:18 | 41.26585 | 28.75386 | 332 ft | 0 kts | 184° |
| 2026-05-08 13:19 | 41.26580 | 28.75386 | 334 ft | 2 kts | 184° |
| 2026-05-08 13:19 | 41.26563 | 28.75384 | 333 ft | 3 kts | 184° |
| 2026-05-08 13:19 | 41.26532 | 28.75382 | 332 ft | 5 kts | 182° |
| 2026-05-08 13:20 | 41.26487 | 28.75382 | 332 ft | 8 kts | 179° |
| 2026-05-08 13:20 | 41.26420 | 28.75385 | 330 ft | 11 kts | 178° |
| 2026-05-08 13:20 | 41.26344 | 28.75389 | 330 ft | 11 kts | 178° |
| 2026-05-08 13:20 | 41.26267 | 28.75380 | 334 ft | 11 kts | 207° |
| 2026-05-08 13:21 | 41.26246 | 28.75299 | 334 ft | 8 kts | 267° |
| 2026-05-08 13:21 | 41.26245 | 28.75218 | 334 ft | 9 kts | 268° |
| 2026-05-08 13:21 | 41.26244 | 28.75132 | 334 ft | 7 kts | 269° |
| 2026-05-08 13:21 | 41.26243 | 28.75083 | 334 ft | 9 kts | 269° |
| 2026-05-08 13:22 | 41.26223 | 28.75010 | 332 ft | 7 kts | 223° |
| 2026-05-08 13:22 | 41.26182 | 28.75000 | 334 ft | 5 kts | 172° |
| 2026-05-08 13:22 | 41.26144 | 28.75014 | 333 ft | 7 kts | 162° |
| 2026-05-08 13:22 | 41.26105 | 28.75026 | 333 ft | 6 kts | 184° |
| 2026-05-08 13:23 | 41.26082 | 28.74984 | 333 ft | 6 kts | 248° |
| 2026-05-08 13:23 | 41.26071 | 28.74948 | 332 ft | 4 kts | 251° |
| 2026-05-08 13:23 | 41.26066 | 28.74926 | 330 ft | 1 kts | 251° |
| 2026-05-08 13:23 | 41.26064 | 28.74921 | 330 ft | 0 kts | 251° |